Time;durP1;ratioP1;P1;durP2;ratioP2;P2;SDS_P1;SDS_P2;PMS_P1;PMS_P2;Temp;Humidity;BMP_temperature;BMP_pressure;BME280_temperature;BME280_humidity;BME280_pressure;Samples;Min_cycle;Max_cycle;Signal;HPM_P1;HPM_P2
2022/04/16 00:01:04;;;;;;;2.10;0.65;;;;;;;27.09;31.06;102346.69;4930148;29;20027;-48
2022/04/16 00:03:33;;;;;;;2.65;0.68;;;;;;;27.05;31.33;102351.00;4914429;29;20107;-50
2022/04/16 00:06:02;;;;;;;0.90;0.45;;;;;;;27.04;31.20;102350.97;4930984;29;20039;-50
2022/04/16 00:08:31;;;;;;;1.60;0.60;;;;;;;27.03;31.08;102344.81;4931827;29;20040;-49
2022/04/16 00:11:00;;;;;;;1.40;0.60;;;;;;;27.08;31.05;102347.53;4929634;29;20397;-46
2022/04/16 00:13:29;;;;;;;1.13;0.50;;;;;;;27.07;30.92;102348.38;4930492;29;20051;-45
2022/04/16 00:15:57;;;;;;;0.77;0.50;;;;;;;27.10;30.90;102344.09;4913689;29;20633;-52
2022/04/16 00:18:26;;;;;;;1.70;0.63;;;;;;;27.08;30.88;102335.28;4931184;29;20032;-53
2022/04/16 00:20:54;;;;;;;0.77;0.50;;;;;;;27.05;30.83;102350.13;4930701;29;20089;-50
2022/04/16 00:23:22;;;;;;;2.38;0.85;;;;;;;26.97;31.11;102342.06;4930642;29;20389;-53
2022/04/16 00:25:50;;;;;;;1.60;0.80;;;;;;;26.98;31.00;102344.72;4931011;29;20043;-49
2022/04/16 00:28:18;;;;;;;1.50;0.57;;;;;;;26.98;30.89;102346.44;4931021;29;20501;-51
2022/04/16 00:30:46;;;;;;;1.23;0.60;;;;;;;26.98;31.15;102343.81;4930053;29;20477;-47
2022/04/16 00:33:15;;;;;;;2.03;0.70;;;;;;;26.92;31.02;102339.28;4932907;29;20117;-48
2022/04/16 00:35:47;;;;;;;1.85;0.55;;;;;;;26.88;31.08;102349.72;4913164;29;20067;-45
2022/04/16 00:38:15;;;;;;;2.10;0.50;;;;;;;26.75;31.01;102314.31;4932343;29;20406;-50
2022/04/16 00:40:43;;;;;;;0.60;0.50;;;;;;;26.88;31.11;102344.47;4911812;29;20054;-50
2022/04/16 00:43:26;;;;;;;1.27;0.52;;;;;;;26.94;30.95;102342.00;4931436;29;20723;-54
2022/04/16 00:45:53;;;;;;;1.45;0.40;;;;;;;26.92;31.03;102335.78;4912380;29;20516;-48
2022/04/16 00:48:22;;;;;;;1.15;0.40;;;;;;;26.93;31.22;102340.22;4931348;29;20027;-48
2022/04/16 00:50:52;;;;;;;1.10;0.50;;;;;;;26.91;30.83;102339.28;4930002;29;20043;-49
2022/04/16 00:53:21;;;;;;;1.10;0.57;;;;;;;26.94;30.76;102336.72;4931248;29;20504;-51
2022/04/16 00:55:49;;;;;;;1.85;0.65;;;;;;;26.91;30.97;102339.28;4932034;29;20074;-46
2022/04/16 00:58:17;;;;;;;2.03;0.57;;;;;;;26.86;31.12;102333.91;4930326;29;20073;-49
2022/04/16 01:00:45;;;;;;;2.00;0.68;;;;;;;26.90;30.64;102338.38;4928645;29;20034;-47
2022/04/16 01:03:14;;;;;;;1.20;0.60;;;;;;;26.87;30.82;102329.53;4929700;29;20561;-48
2022/04/16 01:05:41;;;;;;;1.60;0.60;;;;;;;26.83;30.76;102337.34;4930982;29;20102;-45
2022/04/16 01:08:08;;;;;;;2.70;0.45;;;;;;;26.81;31.02;102341.69;4930215;28;20431;-49
2022/04/16 01:10:37;;;;;;;2.88;0.60;;;;;;;26.74;30.97;102341.47;4928865;29;20058;-45
2022/04/16 01:13:07;;;;;;;1.30;0.68;;;;;;;26.76;31.16;102335.41;4932059;29;20663;-47
2022/04/16 01:15:36;;;;;;;1.35;0.50;;;;;;;26.77;31.04;102329.31;4929107;29;20160;-46
2022/04/16 01:18:05;;;;;;;1.38;0.43;;;;;;;26.84;30.98;102327.72;4929733;29;20396;-49
2022/04/16 01:20:35;;;;;;;1.85;0.90;;;;;;;26.77;31.15;102326.66;4929649;29;20061;-44
2022/04/16 01:23:04;;;;;;;1.77;0.57;;;;;;;26.77;30.96;102331.94;4930136;29;20048;-50
2022/04/16 01:25:33;;;;;;;1.25;0.70;;;;;;;26.75;30.80;102327.47;4929322;29;20040;-47
2022/04/16 01:28:02;;;;;;;1.25;0.50;;;;;;;26.71;30.83;102329.16;4929780;29;21184;-51
2022/04/16 01:30:32;;;;;;;1.38;0.50;;;;;;;26.69;30.67;102323.88;4929758;29;20824;-49
2022/04/16 01:33:01;;;;;;;1.90;0.77;;;;;;;26.71;30.88;102321.25;4927670;29;20099;-48
2022/04/16 01:35:30;;;;;;;2.47;0.60;;;;;;;26.66;30.77;102323.78;4913717;29;20043;-49
2022/04/16 01:37:58;;;;;;;0.95;0.50;;;;;;;26.69;31.16;102323.88;4915570;29;20040;-53
2022/04/16 01:40:26;;;;;;;2.38;0.50;;;;;;;26.66;30.84;102322.88;4913958;29;20036;-45
2022/04/16 01:42:58;;;;;;;1.98;0.60;;;;;;;26.65;30.68;102319.38;4914296;29;20043;-51
2022/04/16 01:45:26;;;;;;;2.25;0.70;;;;;;;26.64;30.77;102320.22;4897563;29;20095;-52
2022/04/16 01:47:58;;;;;;;0.98;0.60;;;;;;;26.63;30.82;102323.72;4915530;29;20032;-49
2022/04/16 01:50:26;;;;;;;1.50;0.50;;;;;;;26.67;30.79;102328.19;4895594;29;20163;-50
2022/04/16 01:52:54;;;;;;;1.60;0.65;;;;;;;26.58;30.81;102319.19;4914476;29;20481;-53
2022/04/16 01:55:21;;;;;;;2.53;0.47;;;;;;;26.67;30.81;102327.28;4914279;29;20043;-48
2022/04/16 01:57:49;;;;;;;2.40;0.60;;;;;;;26.65;30.85;102326.38;4914759;29;20566;-47
2022/04/16 02:00:19;;;;;;;1.73;0.70;;;;;;;26.66;30.91;102333.41;4913163;29;20032;-54
2022/04/16 02:02:47;;;;;;;1.25;0.60;;;;;;;26.68;30.67;102316.81;4913226;29;20048;-46
2022/04/16 02:05:16;;;;;;;1.65;0.52;;;;;;;26.73;30.72;102323.91;4915638;29;20039;-52
2022/04/16 02:07:43;;;;;;;2.65;0.93;;;;;;;26.70;30.96;102327.38;4915182;29;20711;-50
2022/04/16 02:10:16;;;;;;;0.50;0.40;;;;;;;26.75;30.80;102319.56;4914728;29;20041;-47
2022/04/16 02:12:46;;;;;;;3.60;0.73;;;;;;;26.71;30.90;102330.91;4914034;29;20043;-47
2022/04/16 02:15:13;;;;;;;0.93;0.40;;;;;;;26.69;30.76;102328.22;4913675;29;20032;-50
2022/04/16 02:17:41;;;;;;;2.83;0.90;;;;;;;26.65;30.66;102329.91;4897424;29;20092;-46
2022/04/16 02:20:10;;;;;;;2.03;0.65;;;;;;;26.69;30.58;102331.75;4914012;29;20095;-49
2022/04/16 02:22:44;;;;;;;1.50;0.40;;;;;;;26.72;30.64;102330.94;4913437;29;20525;-48
2022/04/16 02:25:14;;;;;;;1.37;0.70;;;;;;;26.72;30.51;102322.16;4914701;29;20061;-53
2022/04/16 02:27:43;;;;;;;2.03;0.60;;;;;;;26.68;30.61;102326.44;4912974;29;20027;-48
2022/04/16 02:30:12;;;;;;;1.52;0.60;;;;;;;26.62;30.79;102327.19;4914230;29;20028;-49
2022/04/16 02:32:42;;;;;;;2.05;0.75;;;;;;;26.61;30.64;102324.53;4914266;29;20040;-51
2022/04/16 02:35:10;;;;;;;1.83;0.50;;;;;;;26.72;30.54;102327.41;4914553;29;20048;-51
2022/04/16 02:37:37;;;;;;;1.52;0.68;;;;;;;26.72;30.72;102330.06;4913620;29;20047;-45
2022/04/16 02:40:06;;;;;;;0.73;0.50;;;;;;;26.69;30.82;102328.22;4917091;29;20051;-48
2022/04/16 02:42:36;;;;;;;1.55;0.60;;;;;;;26.76;30.83;102324.88;4916548;29;20048;-52
2022/04/16 02:47:54;;;;;;;2.05;0.68;;;;;;;26.72;30.55;102327.41;4909730;29;20057;-50
2022/04/16 02:50:25;;;;;;;2.03;0.60;;;;;;;26.81;30.80;102325.88;4916880;29;20127;-47
2022/04/16 02:52:54;;;;;;;1.63;0.70;;;;;;;26.72;30.76;102325.66;4900794;29;20040;-52
2022/04/16 02:55:23;;;;;;;1.92;0.68;;;;;;;26.71;30.76;102325.63;4900192;29;20103;-51
2022/04/16 02:57:51;;;;;;;2.28;0.70;;;;;;;26.72;30.83;102315.13;4901903;29;20046;-52
2022/04/16 03:00:20;;;;;;;1.90;0.75;;;;;;;26.76;30.80;102329.25;4901308;29;20043;-54
2022/04/16 03:02:49;;;;;;;1.17;0.60;;;;;;;26.78;30.57;102330.19;4917673;29;20570;-54
2022/04/16 03:05:18;;;;;;;1.38;0.50;;;;;;;26.76;30.79;102329.25;4916511;29;20107;-54
2022/04/16 03:07:46;;;;;;;2.15;0.70;;;;;;;26.71;30.83;102320.38;4917943;29;20042;-49
2022/04/16 03:10:15;;;;;;;1.73;0.65;;;;;;;26.75;30.78;102331.00;4916687;29;20410;-51
2022/04/16 03:12:44;;;;;;;1.23;0.52;;;;;;;26.73;30.76;102319.53;4898314;29;20127;-48
2022/04/16 03:18:01;;;;;;;1.80;0.57;;;;;;;26.78;30.47;102317.91;4909119;29;20453;-56
2022/04/16 03:20:29;;;;;;;1.58;0.70;;;;;;;26.77;30.65;102323.13;4916934;29;20047;-55
2022/04/16 03:22:58;;;;;;;1.85;0.65;;;;;;;26.80;30.69;102316.25;4916871;29;20122;-54
2022/04/16 03:25:27;;;;;;;1.35;0.63;;;;;;;26.77;30.50;102326.66;4916093;29;20190;-49
2022/04/16 03:27:56;;;;;;;2.60;0.70;;;;;;;26.67;30.66;102319.41;4918189;29;20035;-54
2022/04/16 03:30:24;;;;;;;2.58;0.70;;;;;;;26.58;30.64;102319.19;4915439;29;20082;-53
2022/04/16 03:32:53;;;;;;;1.55;0.70;;;;;;;26.62;30.59;102321.94;4914996;28;20042;-54
2022/04/16 03:35:22;;;;;;;1.67;0.80;;;;;;;26.61;30.74;102324.53;4935963;29;20837;-54
2022/04/16 03:37:49;;;;;;;2.83;0.70;;;;;;;26.59;30.84;102320.97;4919029;29;20039;-53
2022/04/16 03:40:19;;;;;;;2.38;1.10;;;;;;;26.61;30.79;102322.78;4934735;29;20110;-50
2022/04/16 03:42:48;;;;;;;1.75;0.95;;;;;;;26.61;30.75;102321.91;4935367;29;20114;-56
2022/04/16 03:45:22;;;;;;;1.33;0.60;;;;;;;26.67;30.61;102324.66;4935179;29;20039;-52
2022/04/16 03:47:50;;;;;;;1.23;0.57;;;;;;;26.54;30.54;102321.75;4937180;29;20035;-56
2022/04/16 03:50:20;;;;;;;1.42;0.60;;;;;;;26.52;30.92;102319.94;4934143;29;20035;-52
2022/04/16 03:52:50;;;;;;;4.32;0.98;;;;;;;26.48;30.87;102316.31;4934028;29;20035;-53
2022/04/16 04:00:54;;;;;;;1.95;0.70;;;;;;;26.56;30.76;102313.88;4926527;29;20073;-55
2022/04/16 04:03:22;;;;;;;1.38;0.57;;;;;;;26.53;30.83;102314.72;4934526;29;20485;-52
2022/04/16 04:05:53;;;;;;;0.80;0.50;;;;;;;26.52;30.61;102315.56;4935098;29;20114;-55
2022/04/16 04:08:22;;;;;;;2.22;0.80;;;;;;;26.51;30.72;102319.03;4935184;29;20401;-55
2022/04/16 04:10:49;;;;;;;2.00;0.77;;;;;;;26.53;30.59;102325.22;4933153;29;20405;-51
2022/04/16 04:13:17;;;;;;;1.50;0.77;;;;;;;26.52;30.66;102315.56;4935101;29;20039;-54
2022/04/16 04:15:46;;;;;;;2.78;0.80;;;;;;;26.58;30.55;102329.72;4936393;29;20109;-55
2022/04/16 04:18:14;;;;;;;0.90;0.30;;;;;;;26.56;30.79;102327.03;4935315;29;20039;-54
2022/04/16 04:20:42;;;;;;;0.80;0.75;;;;;;;26.56;30.61;102329.66;4933641;29;20047;-52
2022/04/16 04:23:10;;;;;;;1.85;0.68;;;;;;;26.58;30.58;102324.47;4935166;29;20071;-47
2022/04/16 04:25:39;;;;;;;1.50;0.68;;;;;;;26.49;30.56;102323.38;4936464;29;20075;-47
2022/04/16 04:28:07;;;;;;;1.25;0.50;;;;;;;26.62;30.53;102323.69;4935074;29;20031;-47
2022/04/16 04:30:35;;;;;;;3.20;0.75;;;;;;;26.53;30.85;102319.09;4934853;29;20055;-47
2022/04/16 04:33:02;;;;;;;2.22;0.90;;;;;;;26.47;30.59;102317.22;4934934;29;20043;-47
2022/04/16 04:35:31;;;;;;;1.52;0.68;;;;;;;26.42;30.74;102324.09;4934156;29;20058;-48
2022/04/16 04:37:58;;;;;;;1.60;0.77;;;;;;;26.41;30.86;102322.31;4934714;29;20043;-47
2022/04/16 04:40:26;;;;;;;1.85;0.88;;;;;;;26.42;30.88;102324.09;4934010;29;20044;-46
2022/04/16 04:42:54;;;;;;;2.17;0.90;;;;;;;26.42;30.86;102326.72;4934133;29;20838;-48
2022/04/16 04:45:22;;;;;;;2.53;0.88;;;;;;;26.43;30.69;102325.88;4918799;29;20031;-50
2022/04/16 04:47:50;;;;;;;2.25;0.80;;;;;;;26.36;30.55;102314.31;4917163;29;20102;-45
2022/04/16 04:50:18;;;;;;;3.05;0.88;;;;;;;26.40;30.81;102328.44;4934092;29;20490;-52
2022/04/16 04:52:46;;;;;;;1.23;0.60;;;;;;;26.43;30.62;102325.88;4934564;29;20094;-45
2022/04/16 04:55:14;;;;;;;0.80;0.63;;;;;;;26.46;30.75;102325.06;4934592;29;20039;-47
2022/04/16 04:57:42;;;;;;;1.83;0.70;;;;;;;26.41;30.68;102329.31;4933459;29;20043;-49
2022/04/16 05:00:11;;;;;;;1.35;0.65;;;;;;;26.43;30.57;102331.13;4933089;29;20726;-47
2022/04/16 05:02:42;;;;;;;2.55;1.08;;;;;;;26.44;30.59;102329.38;4932475;29;20381;-50
2022/04/16 05:05:11;;;;;;;3.35;0.60;;;;;;;26.34;30.80;102318.66;4935081;29;20027;-53
2022/04/16 05:07:39;;;;;;;3.63;1.02;;;;;;;26.32;31.02;102322.97;4935356;29;20480;-46
2022/04/16 05:10:08;;;;;;;2.97;0.93;;;;;;;26.35;31.07;102330.94;4916708;29;20204;-49
2022/04/16 05:12:36;;;;;;;1.08;0.60;;;;;;;26.39;30.84;102331.91;4916122;29;20039;-52
2022/04/16 05:15:05;;;;;;;2.03;0.75;;;;;;;26.39;30.64;102334.53;4933675;29;20077;-52
2022/04/16 05:17:32;;;;;;;1.35;0.65;;;;;;;26.43;30.69;102341.66;4935021;29;20042;-49
2022/04/16 05:20:03;;;;;;;1.73;0.73;;;;;;;26.44;30.80;102346.06;4933026;29;20067;-45
2022/04/16 05:22:31;;;;;;;1.40;0.70;;;;;;;26.41;31.00;102348.63;4933475;29;20519;-46
2022/04/16 05:24:58;;;;;;;1.00;0.60;;;;;;;26.46;30.48;102354.91;4934447;29;20074;-46
2022/04/16 05:27:27;;;;;;;2.65;0.70;;;;;;;26.40;30.99;102349.47;4933508;29;20035;-52
2022/04/16 05:30:04;;;;;;;2.28;0.57;;;;;;;26.46;30.98;102356.63;4933281;29;20047;-51
2022/04/16 05:32:42;;;;;;;2.13;0.70;;;;;;;26.31;30.53;102321.19;4934489;29;20155;-46
2022/04/16 05:35:11;;;;;;;1.30;0.77;;;;;;;26.37;30.79;102355.56;4929273;29;20054;-48
2022/04/16 05:37:40;;;;;;;1.05;0.60;;;;;;;26.42;30.75;102345.16;4929123;29;20031;-51
2022/04/16 05:40:08;;;;;;;2.70;0.80;;;;;;;26.50;30.84;102361.13;4930360;29;20036;-53
2022/04/16 05:42:42;;;;;;;2.22;0.70;;;;;;;26.48;30.79;102360.19;4928473;29;20118;-47
2022/04/16 05:45:14;;;;;;;1.40;0.65;;;;;;;26.52;30.67;102362.94;4928908;29;20035;-46
2022/04/16 05:47:42;;;;;;;1.27;0.60;;;;;;;26.50;30.81;102361.13;4930241;29;20540;-47
2022/04/16 05:50:10;;;;;;;1.75;0.68;;;;;;;26.51;30.65;102373.44;4928517;29;20312;-50
2022/04/16 05:52:40;;;;;;;2.17;0.70;;;;;;;26.45;30.82;102368.91;4929229;29;20042;-49
2022/04/16 05:55:08;;;;;;;1.13;0.60;;;;;;;26.51;30.62;102371.66;4930091;29;20043;-62
2022/04/16 05:57:36;;;;;;;1.85;0.95;;;;;;;26.55;30.87;102372.66;4929490;29;20046;-49
2022/04/16 06:00:04;;;;;;;2.75;0.80;;;;;;;26.52;30.76;102376.09;4929738;29;20159;-49
2022/04/16 06:02:32;;;;;;;1.70;0.75;;;;;;;26.52;30.81;102373.44;4930248;29;20036;-50
2022/04/16 06:05:00;;;;;;;1.73;0.90;;;;;;;26.55;30.72;102377.91;4929781;29;20035;-46
2022/04/16 06:07:27;;;;;;;1.55;0.70;;;;;;;26.54;30.83;102378.78;4929765;29;20111;-47
2022/04/16 06:09:55;;;;;;;1.70;0.70;;;;;;;26.55;30.80;102377.91;4929430;29;20179;-48
2022/04/16 06:12:23;;;;;;;2.00;0.90;;;;;;;26.59;30.70;102379.75;4929710;29;20031;-47
2022/04/16 06:14:52;;;;;;;1.80;0.80;;;;;;;26.53;30.80;102372.59;4930366;29;20054;-48
2022/04/16 06:17:20;;;;;;;2.20;0.82;;;;;;;26.67;30.92;102386.09;4929006;29;20039;-48
2022/04/16 06:19:48;;;;;;;3.63;0.70;;;;;;;26.64;30.89;102377.25;4929170;29;20062;-47
2022/04/16 06:22:16;;;;;;;2.63;0.90;;;;;;;26.62;31.03;102384.22;4928618;29;20446;-52
2022/04/16 06:24:44;;;;;;;3.92;0.68;;;;;;;26.59;31.12;102387.66;4913260;29;20027;-48
2022/04/16 06:27:12;;;;;;;4.18;0.75;;;;;;;26.60;31.05;102378.91;4928111;29;20489;-47
2022/04/16 06:29:40;;;;;;;1.73;0.80;;;;;;;26.53;31.39;102374.34;4929273;29;20126;-51
2022/04/16 06:32:08;;;;;;;2.25;0.90;;;;;;;26.58;31.17;102372.72;4928433;29;20046;-54
2022/04/16 06:34:35;;;;;;;2.30;0.88;;;;;;;26.61;31.41;102378.06;4929661;29;20138;-48
2022/04/16 06:37:02;;;;;;;2.90;0.80;;;;;;;26.65;31.46;102381.63;4930426;29;20776;-49
2022/04/16 06:39:30;;;;;;;3.50;0.80;;;;;;;26.67;31.50;102379.94;4929685;29;20667;-48
2022/04/16 06:41:58;;;;;;;1.20;0.70;;;;;;;26.70;31.70;102374.75;4929108;29;20039;-48
2022/04/16 06:44:25;;;;;;;3.80;0.68;;;;;;;26.79;31.26;102385.53;4929164;29;20071;-48
2022/04/16 06:46:54;;;;;;;2.25;1.02;;;;;;;26.73;31.49;102376.56;4912036;29;20032;-55
2022/04/16 06:49:23;;;;;;;3.20;0.80;;;;;;;26.75;31.69;102375.75;4928133;29;20035;-49
2022/04/16 06:51:51;;;;;;;5.00;0.70;;;;;;;26.80;31.39;102374.16;4927086;29;20066;-47
2022/04/16 06:54:19;;;;;;;2.15;0.77;;;;;;;26.80;31.57;102376.81;4927751;29;20121;-49
2022/04/16 06:56:47;;;;;;;5.15;0.85;;;;;;;26.80;31.57;102383.78;4928993;29;20043;-45
2022/04/16 06:59:15;;;;;;;1.92;0.77;;;;;;;26.87;31.50;102372.56;4928351;29;20259;-49
2022/04/16 07:01:43;;;;;;;1.67;0.90;;;;;;;26.88;31.72;102376.97;4926556;29;20055;-46
2022/04/16 07:04:11;;;;;;;1.90;0.60;;;;;;;26.89;31.69;102375.22;4930045;29;20133;-47
2022/04/16 07:06:41;;;;;;;1.75;0.73;;;;;;;26.91;31.80;102376.16;4930015;29;20051;-50
2022/04/16 07:09:10;;;;;;;2.95;0.77;;;;;;;26.94;31.78;102376.22;4912315;29;20473;-46
2022/04/16 07:11:37;;;;;;;0.98;0.60;;;;;;;26.98;31.60;102378.94;4927473;29;20094;-45
2022/04/16 07:14:04;;;;;;;1.63;0.70;;;;;;;27.02;31.79;102373.75;4926322;29;20050;-50
2022/04/16 07:16:33;;;;;;;0.95;0.65;;;;;;;27.04;31.66;102374.69;4927418;29;20086;-49
2022/04/16 07:19:01;;;;;;;1.65;0.70;;;;;;;27.05;31.81;102379.09;4911208;29;20131;-47
2022/04/16 07:21:29;;;;;;;1.95;0.98;;;;;;;27.09;31.68;102378.28;4928078;29;20039;-49
2022/04/16 07:23:57;;;;;;;1.90;0.75;;;;;;;27.11;31.78;102382.75;4928872;28;20071;-48
2022/04/16 07:26:25;;;;;;;3.95;0.88;;;;;;;27.15;32.00;102381.94;4931303;29;20565;-49
2022/04/16 07:28:52;;;;;;;1.55;0.70;;;;;;;27.19;31.77;102374.13;4913471;29;20040;-48
2022/04/16 07:31:21;;;;;;;1.10;0.60;;;;;;;27.24;31.94;102372.47;4931141;29;20042;-50
2022/04/16 07:33:48;;;;;;;1.95;0.77;;;;;;;27.26;31.89;102381.31;4930692;29;20064;-47
2022/04/16 07:36:17;;;;;;;1.52;0.80;;;;;;;27.28;31.99;102379.59;4931052;29;20040;-51
2022/04/16 07:38:45;;;;;;;2.17;0.70;;;;;;;27.34;31.86;102381.47;4932266;29;20036;-48
2022/04/16 07:41:14;;;;;;;1.17;0.73;;;;;;;27.38;31.80;102381.56;4930362;29;20060;-48
2022/04/16 07:43:42;;;;;;;3.53;0.88;;;;;;;27.43;31.67;102384.28;4932772;29;21149;-49
2022/04/16 07:46:10;;;;;;;1.40;0.70;;;;;;;27.43;31.89;102373.75;4913325;29;20042;-48
2022/04/16 07:48:38;;;;;;;1.45;0.70;;;;;;;27.47;31.66;102380.91;4931171;29;20039;-52
2022/04/16 07:51:06;;;;;;;3.38;0.80;;;;;;;27.50;31.90;102387.97;4912469;29;20044;-50
2022/04/16 07:53:34;;;;;;;2.15;1.15;;;;;;;27.53;31.72;102386.31;4931461;29;20040;-49
2022/04/16 07:56:01;;;;;;;2.78;0.70;;;;;;;27.57;31.80;102390.75;4931822;29;20042;-51
2022/04/16 07:58:28;;;;;;;2.55;0.98;;;;;;;27.63;31.59;102391.75;4931255;29;20039;-50
2022/04/16 08:00:57;;;;;;;1.45;0.50;;;;;;;27.65;31.92;102388.28;4931064;29;20043;-48
2022/04/16 08:03:24;;;;;;;2.65;0.80;;;;;;;27.69;32.06;102384.84;4912905;29;20413;-52
2022/04/16 08:05:52;;;;;;;1.13;0.73;;;;;;;27.72;31.92;102386.63;4932908;29;20061;-47
2022/04/16 08:08:20;;;;;;;3.80;0.60;;;;;;;27.64;31.97;102368.03;4931863;29;20051;-49
2022/04/16 08:10:51;;;;;;;2.35;0.75;;;;;;;27.82;32.01;102385.06;4929684;29;20108;-50
2022/04/16 08:13:20;;;;;;;1.45;0.60;;;;;;;27.86;31.82;102394.81;4930536;29;20046;-49
2022/04/16 08:15:48;;;;;;;1.02;0.60;;;;;;;27.89;31.94;102401.03;4932364;29;20544;-49
2022/04/16 08:18:16;;;;;;;1.23;0.60;;;;;;;27.93;32.11;102398.47;4931067;29;20521;-47
2022/04/16 08:20:44;;;;;;;1.02;0.80;;;;;;;27.98;31.79;102395.06;4930077;29;20125;-46
2022/04/16 08:23:13;;;;;;;1.10;0.50;;;;;;;28.03;31.93;102400.44;4930749;29;20090;-52
2022/04/16 08:28:09;;;;;;;1.77;0.65;;;;;;;28.08;31.85;102400.50;4931534;29;20039;-49
2022/04/16 08:30:37;;;;;;;4.13;0.73;;;;;;;28.09;31.63;102400.53;4930525;29;20043;-50
2022/04/16 08:33:07;;;;;;;1.98;1.00;;;;;;;28.17;31.69;102404.25;4916259;29;20055;-48
2022/04/16 08:35:35;;;;;;;2.33;0.60;;;;;;;28.13;31.72;102397.13;4924347;29;20040;-50
2022/04/16 08:38:03;;;;;;;0.80;0.50;;;;;;;28.26;31.51;102407.88;4931488;29;20042;-46
2022/04/16 08:40:31;;;;;;;2.28;0.82;;;;;;;28.22;31.63;102398.13;4930567;29;20046;-54
2022/04/16 08:42:58;;;;;;;1.42;0.60;;;;;;;28.28;31.56;102409.72;4931467;29;20126;-47
2022/04/16 08:45:28;;;;;;;2.10;0.88;;;;;;;28.26;31.54;102400.88;4930592;29;20038;-53
2022/04/16 08:47:56;;;;;;;1.52;0.68;;;;;;;28.32;31.46;102403.59;4913630;29;20043;-51
2022/04/16 08:50:24;;;;;;;2.72;0.50;;;;;;;28.37;31.40;102410.72;4929188;29;20046;-52
2022/04/16 08:52:52;;;;;;;1.70;0.50;;;;;;;28.41;31.32;102418.72;4929782;29;20039;-48
2022/04/16 08:55:21;;;;;;;0.93;0.57;;;;;;;28.41;31.14;102418.72;4931141;29;20043;-50
2022/04/16 08:57:48;;;;;;;1.63;0.70;;;;;;;28.47;31.09;102410.00;4930004;29;20039;-47
2022/04/16 09:00:17;;;;;;;1.13;0.50;;;;;;;28.50;30.93;102424.16;4930853;29;20086;-46
2022/04/16 09:02:56;;;;;;;1.15;0.50;;;;;;;28.53;31.13;102412.75;4929344;29;20031;-48
2022/04/16 09:05:26;;;;;;;2.53;0.57;;;;;;;28.48;30.77;102417.06;4911529;29;20040;-48
2022/04/16 09:07:56;;;;;;;1.00;0.60;;;;;;;28.57;30.94;102421.59;4928633;29;20039;-47
2022/04/16 09:10:27;;;;;;;3.75;0.90;;;;;;;28.58;30.96;102420.75;4929547;29;20043;-45
2022/04/16 09:12:56;;;;;;;2.13;0.60;;;;;;;28.59;30.81;102426.06;4930456;29;20508;-46
2022/04/16 09:15:26;;;;;;;0.80;0.60;;;;;;;28.69;30.92;102424.47;4929150;29;20095;-46
2022/04/16 09:18:05;;;;;;;1.80;0.82;;;;;;;28.67;30.63;102420.91;4930945;29;20127;-45
2022/04/16 09:20:36;;;;;;;0.90;0.47;;;;;;;28.68;30.83;102424.41;4927960;29;20573;-50
2022/04/16 09:23:16;;;;;;;3.92;0.73;;;;;;;28.74;30.82;102421.91;4930956;29;20043;-52
2022/04/16 09:25:46;;;;;;;0.77;0.50;;;;;;;28.76;30.69;102421.06;4930615;29;20040;-46
2022/04/16 09:28:16;;;;;;;2.05;0.80;;;;;;;28.81;30.53;102421.13;4928731;29;20027;-48
2022/04/16 09:30:55;;;;;;;0.90;0.47;;;;;;;28.80;30.85;102422.91;4929233;29;20027;-48
2022/04/16 09:33:23;;;;;;;1.40;0.57;;;;;;;28.83;30.67;102416.75;4930248;29;20095;-46
2022/04/16 09:36:00;;;;;;;3.20;1.10;;;;;;;28.86;30.23;102422.09;4929687;29;20093;-46
2022/04/16 09:38:36;;;;;;;3.65;0.93;;;;;;;28.88;30.50;102420.38;4910983;29;20121;-49
2022/04/16 09:41:08;;;;;;;3.28;0.60;;;;;;;28.85;30.58;102407.13;4927600;29;20043;-49
2022/04/16 09:43:37;;;;;;;1.40;0.82;;;;;;;28.91;30.35;102417.78;4929819;29;20039;-46
2022/04/16 09:46:15;;;;;;;1.70;0.93;;;;;;;28.92;30.57;102416.94;4928493;29;20081;-51
2022/04/16 09:48:44;;;;;;;2.75;0.70;;;;;;;28.93;30.39;102415.16;4927579;29;20468;-48
2022/04/16 09:51:13;;;;;;;2.83;1.33;;;;;;;28.95;30.29;102414.34;4914299;29;20051;-52
2022/04/16 09:53:42;;;;;;;1.23;0.50;;;;;;;28.96;30.45;102418.72;4929851;29;20505;-45
2022/04/16 09:56:12;;;;;;;0.90;0.57;;;;;;;28.99;30.49;102424.91;4929571;29;20046;-48
2022/04/16 09:58:40;;;;;;;1.30;0.50;;;;;;;29.01;30.40;102418.81;4930050;29;20043;-47
2022/04/16 10:01:11;;;;;;;2.10;0.60;;;;;;;29.04;30.39;102420.59;4911366;29;20035;-47
2022/04/16 10:03:40;;;;;;;4.07;0.75;;;;;;;29.05;30.47;102411.81;4931221;29;20109;-46
2022/04/16 10:06:09;;;;;;;4.22;0.82;;;;;;;29.11;30.47;102417.19;4929638;29;20039;-46
2022/04/16 10:08:37;;;;;;;7.65;1.08;;;;;;;29.13;30.26;102414.56;4928907;29;20066;-50
2022/04/16 10:11:06;;;;;;;5.53;0.75;;;;;;;29.16;30.12;102419.91;4927660;29;20039;-54
2022/04/16 10:13:40;;;;;;;3.50;0.60;;;;;;;29.17;30.20;102419.03;4910366;29;20075;-47
2022/04/16 10:16:27;;;;;;;1.40;0.60;;;;;;;29.20;30.30;102412.03;4912213;29;20482;-48
2022/04/16 10:18:55;;;;;;;5.28;0.93;;;;;;;29.21;30.31;102411.16;4910241;29;20046;-49
2022/04/16 10:21:23;;;;;;;2.50;0.90;;;;;;;29.24;30.25;102412.94;4929269;29;20043;-46
2022/04/16 10:24:01;;;;;;;3.28;0.90;;;;;;;29.26;30.43;102417.41;4928493;29;20521;-46
2022/04/16 10:26:38;;;;;;;1.08;0.85;;;;;;;29.28;30.51;102413.91;4930313;29;20064;-50
2022/04/16 10:29:07;;;;;;;3.45;0.50;;;;;;;29.32;30.34;102413.03;4927157;29;20528;-50
2022/04/16 10:31:37;;;;;;;1.50;0.68;;;;;;;29.32;30.42;102410.41;4928304;29;20039;-50
2022/04/16 10:34:05;;;;;;;1.80;0.85;;;;;;;29.34;30.59;102400.75;4911375;29;20086;-48
2022/04/16 10:36:37;;;;;;;2.95;0.95;;;;;;;29.34;30.51;102406.03;4929866;29;20043;-51
2022/04/16 10:39:25;;;;;;;2.97;0.60;;;;;;;29.38;30.38;102411.41;4930059;29;20537;-49
2022/04/16 10:42:03;;;;;;;2.85;0.90;;;;;;;29.38;30.38;102408.75;4923360;29;20087;-49
2022/04/16 10:44:53;;;;;;;2.40;0.90;;;;;;;29.41;30.66;102414.09;4929422;29;20511;-52
2022/04/16 10:47:21;;;;;;;2.20;1.02;;;;;;;29.43;30.36;102406.19;4920801;29;20050;-51
2022/04/16 10:49:48;;;;;;;3.13;0.98;;;;;;;29.46;30.66;102402.69;4911103;29;20130;-46
2022/04/16 10:52:25;;;;;;;1.13;0.70;;;;;;;29.47;30.61;102402.69;4927514;29;21298;-46
2022/04/16 10:55:05;;;;;;;2.60;0.80;;;;;;;29.49;30.29;102408.88;4928658;29;20095;-46
2022/04/16 10:57:33;;;;;;;2.78;0.98;;;;;;;29.49;30.36;102406.25;4928466;29;20035;-51
2022/04/16 11:00:12;;;;;;;4.30;0.98;;;;;;;29.49;30.77;102403.59;4911955;29;20094;-52
2022/04/16 11:02:40;;;;;;;2.83;1.23;;;;;;;29.50;30.76;102405.38;4932982;29;20335;-48
2022/04/16 11:05:11;;;;;;;2.30;0.88;;;;;;;29.51;30.70;102401.88;4932231;29;20040;-49
2022/04/16 11:07:40;;;;;;;2.47;0.68;;;;;;;29.55;30.45;102401.03;4914546;29;20052;-46
2022/04/16 11:10:10;;;;;;;2.10;0.75;;;;;;;29.57;30.44;102398.41;4913924;29;20043;-50
2022/04/16 11:12:39;;;;;;;1.75;0.93;;;;;;;29.56;30.39;102394.88;4914665;29;20031;-46
2022/04/16 11:15:24;;;;;;;1.40;0.85;;;;;;;29.60;30.44;102401.09;4932671;29;20039;-46
2022/04/16 11:17:56;;;;;;;;;;;;;;;29.69;30.55;102397.66;4932009;29;20433;-47
2022/04/16 11:20:25;;;;;;;3.33;0.98;;;;;;;29.67;30.25;102395.03;4931835;29;20033;-46
2022/04/16 11:22:54;;;;;;;2.70;0.95;;;;;;;29.67;30.22;102392.38;4915012;29;20042;-50
2022/04/16 11:25:24;;;;;;;1.60;0.70;;;;;;;29.60;30.47;102379.94;4932133;29;20123;-47
2022/04/16 11:36:16;;;;;;;1.35;0.70;;;;;;;29.73;30.29;102380.06;4924789;29;20039;-49
2022/04/16 11:38:45;;;;;;;2.85;0.80;;;;;;;29.72;30.15;102379.19;4932524;29;20141;-50
2022/04/16 11:41:14;;;;;;;1.15;0.82;;;;;;;29.71;30.11;102380.94;4931550;29;20066;-47
2022/04/16 11:43:51;;;;;;;2.35;0.77;;;;;;;29.75;30.15;102379.22;4930384;29;20047;-51
2022/04/16 11:46:22;;;;;;;1.83;0.98;;;;;;;29.75;30.33;102376.59;4931397;29;20840;-46
2022/04/16 11:48:51;;;;;;;1.77;0.82;;;;;;;29.76;30.43;102378.38;4932856;29;20039;-49
2022/04/16 11:51:20;;;;;;;4.25;0.98;;;;;;;29.79;30.03;102377.50;4912115;29;20043;-48
2022/04/16 11:53:53;;;;;;;3.50;0.95;;;;;;;29.80;29.98;102385.44;4930535;29;20474;-47
2022/04/16 11:56:22;;;;;;;1.35;0.75;;;;;;;29.80;30.09;102374.84;4931594;29;20032;-49